Time;durP1;ratioP1;P1;durP2;ratioP2;P2;SDS_P1;SDS_P2;PMS_P1;PMS_P2;Temp;Humidity;BMP_temperature;BMP_pressure;BME280_temperature;BME280_humidity;BME280_pressure;Samples;Min_cycle;Max_cycle;Signal;HPM_P1;HPM_P2
2024/03/03 00:00:36;;;;;;;;;;;;;;;21.99;27.38;97646.44;5016679;28;799;-75
2024/03/03 00:03:02;;;;;;;;;;;;;;;22.04;27.28;97640.22;5016093;28;921;-76
2024/03/03 00:05:27;;;;;;;;;;;;;;;21.92;27.17;97638.22;4983675;28;812;-74
2024/03/03 00:07:53;;;;;;;;;;;;;;;21.42;27.66;97634.94;4999945;28;787;-74
2024/03/03 00:10:18;;;;;;;;;;;;;;;21.49;27.74;97633.91;5016214;28;837;-75
2024/03/03 00:12:44;;;;;;;;;;;;;;;21.82;27.27;97638.09;5016153;28;889;-74
2024/03/03 00:15:09;;;;;;;;;;;;;;;21.94;27.51;97641.38;5016299;28;1910;-74
2024/03/03 00:17:36;;;;;;;;;;;;;;;22.00;27.23;97629.00;4996504;28;893;-75
2024/03/03 00:20:04;;;;;;;;;;;;;;;21.98;27.17;97640.00;4996375;28;906;-75
2024/03/03 00:22:30;;;;;;;;;;;;;;;22.02;27.15;97631.34;4921235;29;1246;-74
2024/03/03 00:24:56;;;;;;;;;;;;;;;21.73;27.44;97626.66;4938309;29;938;-74
2024/03/03 00:27:22;;;;;;;;;;;;;;;21.42;27.96;97620.00;4938920;29;789;-74
2024/03/03 00:29:47;;;;;;;;;;;;;;;21.81;27.64;97628.03;4906208;29;1235;-74
2024/03/03 00:32:13;;;;;;;;;;;;;;;21.82;27.65;97623.16;4938247;29;883;-75
2024/03/03 00:34:38;;;;;;;;;;;;;;;22.03;27.41;97618.81;4921934;29;1906;-75
2024/03/03 00:37:04;;;;;;;;;;;;;;;22.19;27.06;97624.34;4938596;29;929;-75
2024/03/03 00:39:29;;;;;;;;;;;;;;;21.71;27.67;97622.69;4921938;29;1209;-75
2024/03/03 00:41:55;;;;;;;;;;;;;;;21.66;27.66;97624.09;4937879;29;795;-75
2024/03/03 00:44:20;;;;;;;;;;;;;;;21.16;28.17;97617.13;4922287;29;1226;-74
2024/03/03 00:46:47;;;;;;;;;;;;;;;21.67;27.92;97624.88;4938516;29;789;-75
2024/03/03 00:49:12;;;;;;;;;;;;;;;21.82;27.67;97626.78;4937696;29;1121;-74
2024/03/03 00:51:39;;;;;;;;;;;;;;;21.95;27.23;97625.94;4922293;29;1220;-75
2024/03/03 00:54:04;;;;;;;;;;;;;;;21.98;27.38;97620.16;4955536;28;1268;-75
2024/03/03 00:56:30;;;;;;;;;;;;;;;21.95;27.32;97615.41;4999138;28;1903;-74
2024/03/03 00:58:56;;;;;;;;;;;;;;;21.88;27.34;97621.31;4984569;28;1152;-74
2024/03/03 01:01:21;;;;;;;;;;;;;;;21.78;27.31;97623.25;5019041;28;1697;-74
2024/03/03 01:03:47;;;;;;;;;;;;;;;21.63;27.57;97616.47;5035738;28;786;-75
2024/03/03 01:06:12;;;;;;;;;;;;;;;21.65;27.76;97613.97;5019870;28;1326;-75
2024/03/03 01:08:38;;;;;;;;;;;;;;;21.93;27.34;97605.78;5035617;28;799;-75
2024/03/03 01:11:03;;;;;;;;;;;;;;;21.96;27.40;97610.53;5020200;28;1548;-74
2024/03/03 01:13:29;;;;;;;;;;;;;;;22.00;27.19;97611.22;5014438;28;933;-75
2024/03/03 01:15:55;;;;;;;;;;;;;;;21.83;27.37;97614.19;4998822;28;1910;-75
2024/03/03 01:18:20;;;;;;;;;;;;;;;21.27;28.12;97611.94;5014794;28;778;-75
2024/03/03 01:20:46;;;;;;;;;;;;;;;21.28;28.31;97619.16;4982815;28;1061;-74
2024/03/03 01:23:12;;;;;;;;;;;;;;;21.76;27.86;97614.44;5014997;28;934;-74
2024/03/03 01:25:37;;;;;;;;;;;;;;;21.82;27.58;97623.16;4924827;29;1336;-74
2024/03/03 01:28:03;;;;;;;;;;;;;;;21.78;27.72;97616.81;4940652;29;850;-75
2024/03/03 01:30:29;;;;;;;;;;;;;;;21.98;27.35;97610.88;4921362;29;1084;-74
2024/03/03 01:32:54;;;;;;;;;;;;;;;21.54;27.85;97614.31;4936849;29;939;-75
2024/03/03 01:35:20;;;;;;;;;;;;;;;21.09;28.31;97606.06;4921494;29;1914;-74
2024/03/03 01:37:45;;;;;;;;;;;;;;;21.61;27.66;97613.31;4921303;29;752;-75
2024/03/03 01:40:12;;;;;;;;;;;;;;;21.99;27.38;97610.41;4937000;29;1219;-74
2024/03/03 01:42:38;;;;;;;;;;;;;;;21.93;27.27;97606.59;4937489;29;1281;-75
2024/03/03 01:45:04;;;;;;;;;;;;;;;21.87;27.44;97613.28;4935480;29;832;-74
2024/03/03 01:47:30;;;;;;;;;;;;;;;21.79;27.73;97613.50;4956684;29;805;-75
2024/03/03 01:49:55;;;;;;;;;;;;;;;21.93;27.30;97606.59;4956139;29;1328;-75
2024/03/03 01:52:21;;;;;;;;;;;;;;;21.69;27.43;97614.66;4956204;29;891;-75
2024/03/03 01:54:46;;;;;;;;;;;;;;;21.61;27.63;97606.88;4956045;29;1906;-74
2024/03/03 01:57:13;;;;;;;;;;;;;;;21.76;27.83;97613.63;5000100;28;1306;-75
2024/03/03 01:59:39;;;;;;;;;;;;;;;21.91;27.72;97608.28;4997865;28;728;-75
2024/03/03 02:02:05;;;;;;;;;;;;;;;22.04;27.33;97611.88;4982258;28;1068;-74
2024/03/03 02:04:30;;;;;;;;;;;;;;;22.21;26.95;97610.50;4982013;28;1113;-74
2024/03/03 02:06:56;;;;;;;;;;;;;;;21.97;27.09;97606.47;4984206;28;1195;-75
2024/03/03 02:09:21;;;;;;;;;;;;;;;21.65;27.83;97608.31;5018656;28;1515;-74
2024/03/03 02:11:47;;;;;;;;;;;;;;;21.27;28.22;97606.28;5036573;28;712;-75
2024/03/03 02:14:13;;;;;;;;;;;;;;;21.85;27.54;97611.69;5017276;28;1242;-75
2024/03/03 02:16:38;;;;;;;;;;;;;;;22.06;27.43;97615.03;5018060;28;1988;-74
2024/03/03 02:19:04;;;;;;;;;;;;;;;21.95;27.52;97611.78;5017539;28;1263;-75
2024/03/03 02:21:29;;;;;;;;;;;;;;;21.90;27.60;97612.34;5017610;28;732;-74
2024/03/03 02:23:55;;;;;;;;;;;;;;;22.01;27.41;97612.78;5017428;28;1141;-74
2024/03/03 02:26:21;;;;;;;;;;;;;;;21.46;28.15;97617.88;5034271;28;1132;-75
2024/03/03 02:28:47;;;;;;;;;;;;;;;21.58;27.64;97625.53;5033756;28;877;-74
2024/03/03 02:31:13;;;;;;;;;;;;;;;21.59;27.86;97624.28;5001438;28;1398;-74
2024/03/03 02:33:38;;;;;;;;;;;;;;;21.93;27.40;97612.25;5000815;28;1096;-75
2024/03/03 02:36:04;;;;;;;;;;;;;;;22.01;27.28;97622.06;5017666;28;1910;-74
2024/03/03 02:38:30;;;;;;;;;;;;;;;22.01;27.28;97619.22;5033253;28;1432;-74
2024/03/03 02:40:55;;;;;;;;;;;;;;;21.98;27.24;97620.16;5018142;28;1746;-75
2024/03/03 02:43:21;;;;;;;;;;;;;;;21.69;27.54;97628.03;5033620;28;747;-74
2024/03/03 02:45:47;;;;;;;;;;;;;;;21.62;27.74;97626.22;5029440;28;743;-75
2024/03/03 02:48:12;;;;;;;;;;;;;;;21.77;27.67;97633.00;5002007;28;1199;-74
2024/03/03 02:50:38;;;;;;;;;;;;;;;22.03;27.63;97632.97;5034578;28;806;-75
2024/03/03 02:53:04;;;;;;;;;;;;;;;22.08;27.33;97640.88;5018288;28;779;-74
2024/03/03 02:55:29;;;;;;;;;;;;;;;22.02;27.41;97642.69;5035299;28;1902;-74
2024/03/03 02:57:55;;;;;;;;;;;;;;;21.96;27.45;97645.31;5034890;28;1250;-75
2024/03/03 03:00:20;;;;;;;;;;;;;;;21.61;27.53;97652.97;5018268;28;1260;-74
2024/03/03 03:02:46;;;;;;;;;;;;;;;21.61;27.95;97640.84;5018594;28;1155;-75
2024/03/03 03:05:12;;;;;;;;;;;;;;;22.04;27.61;97651.53;5037779;28;1144;-74
2024/03/03 03:07:37;;;;;;;;;;;;;;;22.18;27.26;97655.97;5039484;28;853;-74
2024/03/03 03:10:03;;;;;;;;;;;;;;;22.03;27.13;97656.41;5021481;28;1282;-74
2024/03/03 03:12:29;;;;;;;;;;;;;;;21.45;28.02;97656.69;5021120;28;835;-74
2024/03/03 03:14:55;;;;;;;;;;;;;;;21.50;27.84;97647.66;5038385;28;1975;-74
2024/03/03 03:17:20;;;;;;;;;;;;;;;21.54;28.18;97650.34;5039487;28;799;-75
2024/03/03 03:19:46;;;;;;;;;;;;;;;21.83;27.79;97653.84;5037848;28;810;-75
2024/03/03 03:22:12;;;;;;;;;;;;;;;22.10;27.47;97644.03;5037966;28;1286;-75
2024/03/03 03:24:37;;;;;;;;;;;;;;;22.03;27.31;97649.97;5021417;28;1092;-75
2024/03/03 03:27:03;;;;;;;;;;;;;;;21.88;27.43;97657.34;5037996;28;908;-74
2024/03/03 03:29:29;;;;;;;;;;;;;;;21.83;27.61;97653.06;5020989;28;764;-74
2024/03/03 03:31:54;;;;;;;;;;;;;;;21.35;28.10;97657.81;5039406;28;740;-74
2024/03/03 03:34:20;;;;;;;;;;;;;;;21.69;27.69;97648.63;5038821;28;866;-75
2024/03/03 03:36:45;;;;;;;;;;;;;;;21.91;27.56;97659.25;5038931;28;1975;-75
2024/03/03 03:39:12;;;;;;;;;;;;;;;22.06;27.20;97655.50;5000061;28;1221;-74
2024/03/03 03:41:46;;;;;;;;;;;;;;;21.89;27.74;97658.94;5000689;28;1475;-75
2024/03/03 03:44:12;;;;;;;;;;;;;;;21.71;27.47;97668.81;4983713;28;845;-74
2024/03/03 03:46:38;;;;;;;;;;;;;;;21.49;27.83;97668.69;5000494;28;700;-75
2024/03/03 03:49:08;;;;;;;;;;;;;;;21.47;27.95;97670.41;5000350;28;798;-74
2024/03/03 03:51:33;;;;;;;;;;;;;;;21.92;27.50;97677.88;5000699;28;955;-74
2024/03/03 03:53:59;;;;;;;;;;;;;;;22.09;27.40;97676.47;5000251;28;1117;-75
2024/03/03 03:56:25;;;;;;;;;;;;;;;22.12;27.19;97669.09;4984018;28;1922;-75
2024/03/03 03:58:50;;;;;;;;;;;;;;;21.77;27.66;97678.31;5016170;28;805;-74
2024/03/03 04:01:22;;;;;;;;;;;;;;;21.69;27.63;97682.63;5016735;28;705;-75
2024/03/03 04:03:47;;;;;;;;;;;;;;;21.24;28.16;97679.94;4983701;28;926;-75
2024/03/03 04:06:13;;;;;;;;;;;;;;;21.60;28.11;97679.66;4945304;28;1681;-74
2024/03/03 04:08:39;;;;;;;;;;;;;;;22.11;27.39;97674.00;4961183;28;855;-74
2024/03/03 04:11:05;;;;;;;;;;;;;;;22.09;27.32;97674.41;4995837;28;860;-75
2024/03/03 04:13:30;;;;;;;;;;;;;;;22.06;27.27;97671.69;4983295;28;741;-74
2024/03/03 04:15:56;;;;;;;;;;;;;;;21.54;27.82;97673.00;5015264;28;1910;-74
2024/03/03 04:18:21;;;;;;;;;;;;;;;21.38;28.17;97673.09;4999461;28;799;-74
2024/03/03 04:20:47;;;;;;;;;;;;;;;21.40;28.04;97676.25;5016675;28;811;-74
2024/03/03 04:23:12;;;;;;;;;;;;;;;21.99;27.61;97671.94;4982960;28;889;-74
2024/03/03 04:25:38;;;;;;;;;;;;;;;21.99;27.42;97674.78;4999918;28;836;-74
2024/03/03 04:28:03;;;;;;;;;;;;;;;22.06;27.48;97677.38;4999584;28;1072;-74
2024/03/03 04:30:29;;;;;;;;;;;;;;;21.74;28.00;97675.59;4960597;28;1227;-75
2024/03/03 04:32:54;;;;;;;;;;;;;;;21.49;28.06;97667.88;4960289;28;1350;-74
2024/03/03 04:35:20;;;;;;;;;;;;;;;21.70;27.63;97672.88;4960573;28;1981;-74
2024/03/03 04:37:45;;;;;;;;;;;;;;;21.60;27.71;97685.31;4988962;28;710;-75
2024/03/03 04:40:11;;;;;;;;;;;;;;;21.81;27.78;97679.00;4999325;28;1395;-74
2024/03/03 04:42:36;;;;;;;;;;;;;;;22.04;27.23;97674.22;4983148;28;1108;-74
2024/03/03 04:45:03;;;;;;;;;;;;;;;22.10;27.29;97681.69;4943842;28;1285;-75
2024/03/03 04:47:29;;;;;;;;;;;;;;;21.82;27.61;97683.41;4944622;28;948;-76
2024/03/03 04:49:54;;;;;;;;;;;;;;;21.51;27.78;97683.19;4919166;29;1091;-76
2024/03/03 04:52:20;;;;;;;;;;;;;;;21.40;28.07;97693.25;4903422;29;1554;-74
2024/03/03 04:54:45;;;;;;;;;;;;;;;21.98;27.51;97693.81;4902937;29;1975;-74
2024/03/03 04:57:11;;;;;;;;;;;;;;;22.02;27.27;97693.69;4903263;29;959;-74
2024/03/03 04:59:36;;;;;;;;;;;;;;;22.06;27.43;97694.38;4918442;29;1018;-75
2024/03/03 05:02:03;;;;;;;;;;;;;;;21.78;27.56;97684.78;4932930;29;949;-75
2024/03/03 05:04:29;;;;;;;;;;;;;;;21.72;27.46;97687.38;4922069;29;1168;-74
2024/03/03 05:06:54;;;;;;;;;;;;;;;21.43;27.72;97698.00;4930759;29;1199;-75
2024/03/03 05:09:20;;;;;;;;;;;;;;;21.72;27.92;97698.72;4957028;29;1087;-74
2024/03/03 05:11:46;;;;;;;;;;;;;;;21.88;27.59;97699.84;4941217;29;988;-74
2024/03/03 05:14:11;;;;;;;;;;;;;;;22.05;27.22;97698.44;4924969;29;1008;-75
2024/03/03 05:16:37;;;;;;;;;;;;;;;21.96;27.51;97696.31;5000435;28;1984;-75
2024/03/03 05:19:02;;;;;;;;;;;;;;;21.89;27.38;97698.59;5014840;28;972;-75
2024/03/03 05:21:28;;;;;;;;;;;;;;;21.66;27.44;97705.38;5015181;28;1036;-75
2024/03/03 05:23:53;;;;;;;;;;;;;;;21.78;27.45;97707.44;5014942;28;1705;-75
2024/03/03 05:26:19;;;;;;;;;;;;;;;22.18;27.28;97706.97;4989993;28;1111;-75
2024/03/03 05:28:45;;;;;;;;;;;;;;;21.75;27.95;97709.13;4997611;28;1493;-75
2024/03/03 05:31:10;;;;;;;;;;;;;;;22.05;27.21;97712.63;5015333;28;962;-75
2024/03/03 05:33:36;;;;;;;;;;;;;;;21.53;28.03;97719.53;4998243;28;1029;-75
2024/03/03 05:36:01;;;;;;;;;;;;;;;21.66;27.62;97713.88;5015333;28;1983;-74
2024/03/03 05:38:27;;;;;;;;;;;;;;;21.65;28.05;97709.47;4998329;28;1093;-75
2024/03/03 05:40:52;;;;;;;;;;;;;;;21.88;27.63;97705.50;5015078;28;992;-74
2024/03/03 05:43:18;;;;;;;;;;;;;;;21.82;27.45;97708.91;4998577;28;978;-74
2024/03/03 05:45:43;;;;;;;;;;;;;;;21.79;27.51;97714.69;4998938;28;1030;-75
2024/03/03 05:48:09;;;;;;;;;;;;;;;21.65;27.83;97724.41;4995028;28;1328;-74
2024/03/03 05:50:34;;;;;;;;;;;;;;;21.19;28.24;97723.75;4995364;28;950;-74
2024/03/03 05:53:00;;;;;;;;;;;;;;;21.73;27.80;97714.44;4995107;28;1866;-74
2024/03/03 05:55:25;;;;;;;;;;;;;;;21.99;27.30;97717.28;4962685;28;1903;-75
2024/03/03 05:57:51;;;;;;;;;;;;;;;22.12;27.37;97720.91;4993282;28;936;-76
2024/03/03 06:00:17;;;;;;;;;;;;;;;22.20;27.21;97722.25;4982139;28;1053;-74
2024/03/03 06:02:42;;;;;;;;;;;;;;;21.91;27.32;97715.91;4981787;28;992;-75
2024/03/03 06:05:08;;;;;;;;;;;;;;;21.84;27.34;97720.56;4965780;28;1121;-75
2024/03/03 06:07:34;;;;;;;;;;;;;;;21.65;27.74;97715.91;4982391;28;1239;-78
2024/03/03 06:09:59;;;;;;;;;;;;;;;21.59;28.23;97726.22;4986416;28;1527;-75
2024/03/03 06:12:25;;;;;;;;;;;;;;;21.97;27.40;97725.44;4971742;28;1543;-75
2024/03/03 06:14:51;;;;;;;;;;;;;;;22.02;27.67;97727.69;4991723;28;1898;-76
2024/03/03 06:17:17;;;;;;;;;;;;;;;22.19;27.26;97726.34;4958483;28;1338;-76
2024/03/03 06:19:43;;;;;;;;;;;;;;;21.92;27.31;97728.84;4968870;28;966;-75
2024/03/03 06:22:08;;;;;;;;;;;;;;;21.47;28.17;97727.78;4962555;28;983;-77
2024/03/03 06:24:34;;;;;;;;;;;;;;;21.43;28.15;97738.44;4978723;28;1009;-75
2024/03/03 06:27:00;;;;;;;;;;;;;;;21.85;27.80;97738.34;4979126;28;1047;-76
2024/03/03 06:29:25;;;;;;;;;;;;;;;22.06;27.16;97739.69;4994969;28;1009;-75
2024/03/03 06:31:51;;;;;;;;;;;;;;;22.01;27.49;97731.78;4962834;28;1092;-77
2024/03/03 06:34:16;;;;;;;;;;;;;;;21.89;27.63;97741.06;4994594;28;1038;-76
2024/03/03 06:36:42;;;;;;;;;;;;;;;21.88;27.33;97753.66;4995336;28;1926;-76
2024/03/03 06:39:12;;;;;;;;;;;;;;;21.49;27.59;97752.81;4980142;28;1096;-77
2024/03/03 06:41:38;;;;;;;;;;;;;;;21.77;28.04;97746.28;4983015;28;918;-76
2024/03/03 06:44:05;;;;;;;;;;;;;;;21.83;27.92;97750.13;4998089;28;945;-76
2024/03/03 06:46:31;;;;;;;;;;;;;;;21.94;27.50;97749.00;4966513;28;972;-76
2024/03/03 06:48:56;;;;;;;;;;;;;;;22.03;27.54;97746.28;4959310;29;1007;-76
2024/03/03 06:51:22;;;;;;;;;;;;;;;21.63;27.99;97758.06;4943743;29;1049;-75
2024/03/03 06:53:47;;;;;;;;;;;;;;;21.50;28.08;97754.41;4929614;28;1005;-75
2024/03/03 06:56:14;;;;;;;;;;;;;;;21.46;27.89;97759.38;4978833;28;1940;-76
2024/03/03 06:58:40;;;;;;;;;;;;;;;21.93;27.40;97759.56;4959172;29;1163;-76
2024/03/03 07:01:05;;;;;;;;;;;;;;;21.85;27.96;97764.63;4959623;29;976;-75
2024/03/03 07:06:15;;;;;;;;;;;;;;;22.00;27.59;97758.53;4959415;29;911;-76
2024/03/03 07:08:41;;;;;;;;;;;;;;;21.62;28.00;97772.66;4959330;29;983;-75
2024/03/03 07:11:06;;;;;;;;;;;;;;;21.58;28.10;97772.75;4959327;29;1000;-76
2024/03/03 07:13:32;;;;;;;;;;;;;;;21.33;28.40;97767.84;4959090;29;1094;-76
2024/03/03 07:15:57;;;;;;;;;;;;;;;22.03;27.63;97757.63;4959268;29;1907;-76
2024/03/03 07:18:23;;;;;;;;;;;;;;;22.18;27.44;97764.44;4958917;29;1032;-76
2024/03/03 07:20:48;;;;;;;;;;;;;;;22.10;27.47;97763.03;4992780;28;1275;-77
2024/03/03 07:23:14;;;;;;;;;;;;;;;21.36;28.38;97771.81;4997637;28;1027;-76
2024/03/03 07:25:39;;;;;;;;;;;;;;;21.04;28.48;97767.84;4997998;28;982;-76
2024/03/03 07:28:06;;;;;;;;;;;;;;;21.89;28.00;97769.41;4997591;28;1206;-76
2024/03/03 07:30:31;;;;;;;;;;;;;;;21.98;27.50;97772.34;5016022;28;1467;-76
2024/03/03 07:32:57;;;;;;;;;;;;;;;22.00;27.65;97769.84;5031853;28;1619;-76
2024/03/03 07:35:22;;;;;;;;;;;;;;;22.15;27.33;97771.00;5026349;28;1975;-76
2024/03/03 07:37:48;;;;;;;;;;;;;;;21.89;27.60;97769.41;5025703;28;1439;-76
2024/03/03 07:40:13;;;;;;;;;;;;;;;21.56;27.84;97775.25;5018230;28;1660;-77
2024/03/03 07:42:39;;;;;;;;;;;;;;;21.31;28.27;97776.00;5026303;28;1546;-76
2024/03/03 07:45:04;;;;;;;;;;;;;;;21.91;27.92;97775.41;5002077;28;1722;-77
2024/03/03 07:47:30;;;;;;;;;;;;;;;21.93;27.55;97768.03;4946236;28;1856;-76
2024/03/03 07:49:55;;;;;;;;;;;;;;;22.08;27.60;97765.56;4977358;28;974;-77
2024/03/03 07:52:21;;;;;;;;;;;;;;;21.92;27.67;97762.84;4950092;29;1633;-76
2024/03/03 07:54:47;;;;;;;;;;;;;;;22.02;27.44;97758.84;4907408;29;1710;-77
2024/03/03 07:57:13;;;;;;;;;;;;;;;21.63;27.81;97772.22;4930468;29;1902;-76
2024/03/03 07:59:39;;;;;;;;;;;;;;;21.63;27.97;97774.25;4939144;29;1569;-78
2024/03/03 08:02:04;;;;;;;;;;;;;;;21.94;27.73;97763.16;4941250;29;1627;-77
2024/03/03 08:04:30;;;;;;;;;;;;;;;22.26;27.41;97760.13;4949337;29;1529;-77
2024/03/03 08:06:55;;;;;;;;;;;;;;;22.26;27.01;97765.78;4917503;29;1719;-77
2024/03/03 08:09:21;;;;;;;;;;;;;;;21.70;28.08;97763.47;4931182;29;1975;-76
2024/03/03 08:11:46;;;;;;;;;;;;;;;21.60;27.82;97764.59;4948728;29;1558;-76
2024/03/03 08:14:12;;;;;;;;;;;;;;;21.45;28.30;97769.09;4929999;29;1530;-77
2024/03/03 08:16:38;;;;;;;;;;;;;;;21.73;28.23;97765.44;4964050;28;1911;-77
2024/03/03 08:19:03;;;;;;;;;;;;;;;21.97;27.45;97765.09;4995027;28;1553;-76
2024/03/03 08:21:30;;;;;;;;;;;;;;;21.76;27.99;97778.69;4991789;28;1548;-76
2024/03/03 08:23:55;;;;;;;;;;;;;;;22.03;27.37;97775.41;5026273;28;1561;-76
2024/03/03 08:26:21;;;;;;;;;;;;;;;21.79;27.69;97772.09;5029969;28;1626;-75
2024/03/03 08:28:46;;;;;;;;;;;;;;;21.67;27.86;97770.06;5015712;28;969;-77
2024/03/03 08:31:13;;;;;;;;;;;;;;;21.38;28.18;97774.97;5016481;28;1034;-77
2024/03/03 08:33:38;;;;;;;;;;;;;;;21.84;28.03;97771.53;5015933;28;1028;-77
2024/03/03 08:36:04;;;;;;;;;;;;;;;22.19;27.52;97771.69;4983713;28;1914;-76
2024/03/03 08:38:30;;;;;;;;;;;;;;;21.96;27.86;97766.34;4999311;28;1326;-76
2024/03/03 08:40:55;;;;;;;;;;;;;;;21.76;28.01;97769.38;5000039;28;930;-76
2024/03/03 08:43:21;;;;;;;;;;;;;;;21.70;27.99;97774.81;5015413;28;933;-75
2024/03/03 08:45:47;;;;;;;;;;;;;;;21.41;28.26;97765.59;5016003;28;935;-76
2024/03/03 08:48:12;;;;;;;;;;;;;;;21.57;28.42;97762.69;4967038;28;1117;-76
2024/03/03 08:50:38;;;;;;;;;;;;;;;21.87;27.89;97766.25;5008351;28;1531;-76
2024/03/03 08:53:05;;;;;;;;;;;;;;;22.00;27.49;97764.97;4985629;28;1544;-76
2024/03/03 08:55:30;;;;;;;;;;;;;;;21.77;27.91;97774.59;4988270;28;1911;-76
2024/03/03 08:57:56;;;;;;;;;;;;;;;21.65;27.78;97778.19;4989576;28;1657;-76
2024/03/03 09:00:21;;;;;;;;;;;;;;;21.58;28.07;97767.09;5023219;28;1642;-75
2024/03/03 09:02:47;;;;;;;;;;;;;;;21.31;28.27;97761.84;5027746;28;1549;-76
2024/03/03 09:05:12;;;;;;;;;;;;;;;21.82;27.94;97759.88;5017344;28;1605;-75
2024/03/03 09:07:39;;;;;;;;;;;;;;;22.16;27.51;97766.91;5020094;28;1274;-76
2024/03/03 09:10:05;;;;;;;;;;;;;;;22.21;27.50;97769.19;4999383;28;1102;-76
2024/03/03 09:12:31;;;;;;;;;;;;;;;22.04;27.42;97765.66;5012032;28;1608;-76
2024/03/03 09:14:56;;;;;;;;;;;;;;;21.54;28.25;97766.41;4963061;28;1898;-75
2024/03/03 09:17:22;;;;;;;;;;;;;;;21.66;28.04;97764.84;4963536;28;1635;-75
2024/03/03 09:19:47;;;;;;;;;;;;;;;21.59;28.07;97757.34;4947076;28;1481;-75
2024/03/03 09:22:13;;;;;;;;;;;;;;;21.71;28.05;97764.28;4996015;28;941;-75
2024/03/03 09:24:42;;;;;;;;;;;;;;;22.03;27.43;97764.09;4979205;28;1464;-75
2024/03/03 09:27:09;;;;;;;;;;;;;;;21.88;27.89;97767.81;4979404;28;957;-76
2024/03/03 09:29:35;;;;;;;;;;;;;;;21.96;27.77;97763.50;4979573;28;965;-76
2024/03/03 09:32:02;;;;;;;;;;;;;;;21.91;27.49;97761.22;4979531;28;1186;-76
2024/03/03 09:34:27;;;;;;;;;;;;;;;21.64;27.96;97759.63;4995456;28;1048;-75
2024/03/03 09:36:53;;;;;;;;;;;;;;;21.44;28.26;97765.47;4995495;28;1907;-75
2024/03/03 09:39:18;;;;;;;;;;;;;;;21.75;27.90;97765.75;4995091;28;1203;-75
2024/03/03 09:41:44;;;;;;;;;;;;;;;21.74;27.98;97758.50;4986389;28;985;-76
2024/03/03 09:44:10;;;;;;;;;;;;;;;21.99;27.66;97757.72;4946821;28;1694;-75
2024/03/03 09:46:37;;;;;;;;;;;;;;;22.14;27.49;97758.09;4979145;28;1055;-76
2024/03/03 09:49:02;;;;;;;;;;;;;;;21.81;27.67;97763.97;4979100;28;1025;-75
2024/03/03 09:51:29;;;;;;;;;;;;;;;21.68;27.52;97766.00;4940411;29;1053;-76
2024/03/03 09:53:55;;;;;;;;;;;;;;;21.66;27.40;97773.31;4940364;29;992;-75
2024/03/03 09:56:20;;;;;;;;;;;;;;;21.54;27.78;97769.25;4924672;29;1899;-75
2024/03/03 09:58:46;;;;;;;;;;;;;;;22.01;27.28;97769.38;4921273;29;1258;-76
2024/03/03 10:01:12;;;;;;;;;;;;;;;21.92;27.66;97774.19;4905439;29;1028;-75
2024/03/03 10:03:38;;;;;;;;;;;;;;;21.89;27.66;97775.06;4937147;29;1000;-75
2024/03/03 10:06:04;;;;;;;;;;;;;;;21.98;27.21;97778.81;4880781;29;925;-76
2024/03/03 10:08:29;;;;;;;;;;;;;;;22.00;27.26;97770.63;4827855;29;1434;-75
2024/03/03 10:10:55;;;;;;;;;;;;;;;21.59;27.83;97777.97;4828308;29;914;-75
2024/03/03 10:13:20;;;;;;;;;;;;;;;21.19;28.39;97763.38;4860820;29;1641;-75
2024/03/03 10:15:47;;;;;;;;;;;;;;;21.63;27.71;97765.75;4850764;29;1978;-75
2024/03/03 10:18:13;;;;;;;;;;;;;;;21.53;27.72;97770.50;4852189;29;1060;-75
2024/03/03 10:20:38;;;;;;;;;;;;;;;22.08;27.42;97766.34;4869225;29;1054;-75
2024/03/03 10:23:05;;;;;;;;;;;;;;;21.90;27.59;97770.97;4882532;29;948;-76
2024/03/03 10:25:30;;;;;;;;;;;;;;;22.06;27.27;97762.38;4887823;29;978;-75
2024/03/03 10:28:10;;;;;;;;;;;;;;;21.75;27.84;97765.75;4887655;29;1246;-75
2024/03/03 10:30:36;;;;;;;;;;;;;;;21.73;27.80;97768.25;4919370;29;966;-75
2024/03/03 10:33:04;;;;;;;;;;;;;;;21.83;27.34;97764.31;4909188;29;1239;-76
2024/03/03 10:35:30;;;;;;;;;;;;;;;21.47;27.87;97749.66;4887178;29;1973;-76
2024/03/03 10:37:59;;;;;;;;;;;;;;;21.67;27.66;97757.94;4919492;29;1141;-76
2024/03/03 10:40:25;;;;;;;;;;;;;;;21.96;27.32;97749.34;4958972;28;1119;-76
2024/03/03 10:42:51;;;;;;;;;;;;;;;21.98;27.44;97749.69;4963325;28;961;-76
2024/03/03 10:45:17;;;;;;;;;;;;;;;21.97;27.17;97742.44;4962990;28;1029;-76
2024/03/03 10:47:42;;;;;;;;;;;;;;;21.69;27.66;97756.25;4962876;28;1036;-76
2024/03/03 10:50:08;;;;;;;;;;;;;;;21.42;27.96;97753.03;4962791;28;969;-77
2024/03/03 10:52:38;;;;;;;;;;;;;;;21.21;28.20;97748.78;4962726;28;1432;-76
2024/03/03 10:55:04;;;;;;;;;;;;;;;21.93;27.60;97741.75;4962716;28;1902;-76
2024/03/03 10:57:30;;;;;;;;;;;;;;;22.08;27.07;97728.72;4963113;28;962;-76
2024/03/03 10:59:55;;;;;;;;;;;;;;;22.06;27.26;97739.69;4959276;29;959;-76
2024/03/03 11:02:21;;;;;;;;;;;;;;;22.09;27.15;97733.94;4943902;29;963;-76
2024/03/03 11:04:46;;;;;;;;;;;;;;;21.70;27.50;97734.38;4943427;29;1052;-76
2024/03/03 11:07:12;;;;;;;;;;;;;;;21.59;27.35;97737.53;4974336;28;1087;-76
2024/03/03 11:09:38;;;;;;;;;;;;;;;21.63;27.74;97735.41;4981930;28;927;-76
2024/03/03 11:12:06;;;;;;;;;;;;;;;21.98;27.29;97721.38;4982126;28;991;-76
2024/03/03 11:14:32;;;;;;;;;;;;;;;21.98;27.10;97718.53;4982254;28;1008;-76
2024/03/03 11:16:58;;;;;;;;;;;;;;;21.83;27.48;97713.31;4981795;28;1918;-76
2024/03/03 11:19:27;;;;;;;;;;;;;;;21.94;27.33;97715.00;4982056;28;976;-76
2024/03/03 11:21:55;;;;;;;;;;;;;;;21.83;27.43;97710.50;4998223;28;961;-76
2024/03/03 11:24:23;;;;;;;;;;;;;;;21.37;27.68;97722.47;4926353;29;998;-76
2024/03/03 11:26:49;;;;;;;;;;;;;;;21.62;27.51;97716.03;4959410;29;959;-76
2024/03/03 11:29:19;;;;;;;;;;;;;;;22.05;27.20;97730.41;4943061;29;1023;-75
2024/03/03 11:31:45;;;;;;;;;;;;;;;22.12;26.94;97703.91;4943858;29;993;-76
2024/03/03 11:34:12;;;;;;;;;;;;;;;21.95;27.46;97696.75;4942749;29;1004;-77
2024/03/03 11:36:37;;;;;;;;;;;;;;;21.76;27.45;97693.72;4963022;28;1902;-75
2024/03/03 11:39:09;;;;;;;;;;;;;;;21.28;28.17;97701.22;4962035;28;1225;-75
2024/03/03 11:41:38;;;;;;;;;;;;;;;21.21;28.10;97701.47;4978452;28;1004;-75
2024/03/03 11:44:04;;;;;;;;;;;;;;;21.69;28.00;97702.44;4946578;28;1032;-76
2024/03/03 11:46:49;;;;;;;;;;;;;;;22.01;27.37;97697.78;4962232;28;1048;-76
2024/03/03 11:49:18;;;;;;;;;;;;;;;21.76;27.54;97695.75;4962168;28;992;-76
2024/03/03 11:51:43;;;;;;;;;;;;;;;21.88;27.54;97688.50;4930146;28;1119;-76
2024/03/03 11:54:09;;;;;;;;;;;;;;;21.72;27.47;97681.72;4946234;28;954;-76
2024/03/03 11:56:49;;;;;;;;;;;;;;;21.59;27.60;97689.41;5017846;28;1910;-76
2024/03/03 11:59:15;;;;;;;;;;;;;;;21.47;27.91;97699.50;5018335;28;927;-76
2024/03/03 12:01:41;;;;;;;;;;;;;;;21.77;27.72;97695.31;5018231;28;1083;-75
2024/03/03 12:04:08;;;;;;;;;;;;;;;21.82;27.42;97686.25;5017696;28;1821;-76
2024/03/03 12:06:34;;;;;;;;;;;;;;;21.94;27.33;97686.69;5017779;28;1041;-77
2024/03/03 12:09:01;;;;;;;;;;;;;;;21.93;27.53;97691.56;5017480;28;967;-76
2024/03/03 12:11:27;;;;;;;;;;;;;;;21.73;27.27;97694.63;5018203;28;986;-77
2024/03/03 12:13:57;;;;;;;;;;;;;;;21.89;27.14;97695.75;5017434;28;973;-77
2024/03/03 12:16:22;;;;;;;;;;;;;;;21.46;27.67;97691.47;5001658;28;1954;-76
2024/03/03 12:18:48;;;;;;;;;;;;;;;21.75;27.72;97697.78;5017138;28;936;-76
2024/03/03 12:21:13;;;;;;;;;;;;;;;21.89;27.53;97692.91;5018749;28;907;-76
2024/03/03 12:23:39;;;;;;;;;;;;;;;22.02;27.25;97699.34;5018300;28;840;-76
2024/03/03 12:26:04;;;;;;;;;;;;;;;22.03;27.13;97692.47;5017590;28;965;-76
2024/03/03 12:28:30;;;;;;;;;;;;;;;21.77;27.13;97689.66;5018411;28;915;-76
2024/03/03 12:30:57;;;;;;;;;;;;;;;21.63;27.42;97698.59;5025927;28;1435;-76
2024/03/03 12:33:22;;;;;;;;;;;;;;;21.59;27.45;97689.41;5036898;28;909;-77
2024/03/03 12:35:49;;;;;;;;;;;;;;;21.79;27.37;97689.97;5036369;28;1910;-77
2024/03/03 12:38:15;;;;;;;;;;;;;;;22.03;27.22;97695.28;5019981;28;1012;-76
2024/03/03 12:40:41;;;;;;;;;;;;;;;22.03;27.07;97695.28;5036990;28;1041;-76
2024/03/03 12:43:06;;;;;;;;;;;;;;;21.90;27.24;97692.47;4983056;28;1030;-76
2024/03/03 12:45:32;;;;;;;;;;;;;;;21.82;27.13;97691.91;5011501;28;1647;-76
2024/03/03 12:47:58;;;;;;;;;;;;;;;21.67;27.53;97690.78;4989732;28;1844;-77
2024/03/03 12:50:23;;;;;;;;;;;;;;;21.62;27.31;97694.19;4974471;28;1692;-76
2024/03/03 12:52:50;;;;;;;;;;;;;;;21.16;28.07;97695.56;4932337;29;1635;-76
2024/03/03 12:55:15;;;;;;;;;;;;;;;21.70;27.59;97694.72;4937893;29;1903;-76